sensor_id;sensor_type;location;lat;lon;timestamp;temperature;humidity
11136;DHT22;5622;50.840;4.948;2022-11-14T00:00:44;5.70;99.90
11136;DHT22;5622;50.840;4.948;2022-11-14T00:03:14;5.70;99.90
11136;DHT22;5622;50.840;4.948;2022-11-14T00:05:46;5.70;99.90
11136;DHT22;5622;50.840;4.948;2022-11-14T00:08:16;5.60;99.90
11136;DHT22;5622;50.840;4.948;2022-11-14T00:10:52;5.00;99.90
11136;DHT22;5622;50.840;4.948;2022-11-14T00:13:24;5.90;99.90
11136;DHT22;5622;50.840;4.948;2022-11-14T00:15:57;6.30;99.90
11136;DHT22;5622;50.840;4.948;2022-11-14T00:18:31;5.80;99.90
11136;DHT22;5622;50.840;4.948;2022-11-14T00:21:04;5.80;99.90
11136;DHT22;5622;50.840;4.948;2022-11-14T00:23:35;5.80;99.90
11136;DHT22;5622;50.840;4.948;2022-11-14T00:26:03;5.80;99.90
11136;DHT22;5622;50.840;4.948;2022-11-14T00:28:41;5.80;99.90
11136;DHT22;5622;50.840;4.948;2022-11-14T00:31:09;5.80;99.90
11136;DHT22;5622;50.840;4.948;2022-11-14T00:33:40;7.10;99.90
11136;DHT22;5622;50.840;4.948;2022-11-14T00:36:10;7.10;99.90
11136;DHT22;5622;50.840;4.948;2022-11-14T00:38:46;5.70;99.90
11136;DHT22;5622;50.840;4.948;2022-11-14T00:41:16;5.70;99.90
11136;DHT22;5622;50.840;4.948;2022-11-14T00:43:50;5.60;99.90
11136;DHT22;5622;50.840;4.948;2022-11-14T00:46:22;5.70;99.90
11136;DHT22;5622;50.840;4.948;2022-11-14T00:48:54;5.80;99.90
11136;DHT22;5622;50.840;4.948;2022-11-14T00:51:28;5.50;99.90
11136;DHT22;5622;50.840;4.948;2022-11-14T00:53:56;5.40;99.90
11136;DHT22;5622;50.840;4.948;2022-11-14T00:56:28;6.30;99.90
11136;DHT22;5622;50.840;4.948;2022-11-14T00:59:06;5.20;99.90
11136;DHT22;5622;50.840;4.948;2022-11-14T01:01:40;5.40;99.90
11136;DHT22;5622;50.840;4.948;2022-11-14T01:04:10;5.30;99.90
11136;DHT22;5622;50.840;4.948;2022-11-14T01:06:42;5.50;99.90
11136;DHT22;5622;50.840;4.948;2022-11-14T01:09:10;5.30;99.90
11136;DHT22;5622;50.840;4.948;2022-11-14T01:11:38;5.40;99.90
11136;DHT22;5622;50.840;4.948;2022-11-14T01:14:08;5.30;99.90
11136;DHT22;5622;50.840;4.948;2022-11-14T01:16:36;6.40;99.90
11136;DHT22;5622;50.840;4.948;2022-11-14T01:19:07;5.30;99.90
11136;DHT22;5622;50.840;4.948;2022-11-14T01:21:36;5.30;99.90
11136;DHT22;5622;50.840;4.948;2022-11-14T01:24:17;5.30;99.90
11136;DHT22;5622;50.840;4.948;2022-11-14T01:26:58;5.30;99.90
11136;DHT22;5622;50.840;4.948;2022-11-14T01:29:31;5.20;99.90
11136;DHT22;5622;50.840;4.948;2022-11-14T01:31:59;5.20;99.90
11136;DHT22;5622;50.840;4.948;2022-11-14T01:34:29;5.20;99.90
11136;DHT22;5622;50.840;4.948;2022-11-14T01:36:57;5.30;99.90
11136;DHT22;5622;50.840;4.948;2022-11-14T01:39:28;5.20;99.90
11136;DHT22;5622;50.840;4.948;2022-11-14T01:41:56;5.00;99.90
11136;DHT22;5622;50.840;4.948;2022-11-14T01:44:46;5.00;99.90
11136;DHT22;5622;50.840;4.948;2022-11-14T01:47:17;5.10;99.90
11136;DHT22;5622;50.840;4.948;2022-11-14T01:49:50;5.30;99.90
11136;DHT22;5622;50.840;4.948;2022-11-14T01:52:23;5.20;99.90
11136;DHT22;5622;50.840;4.948;2022-11-14T01:54:54;4.90;99.90
11136;DHT22;5622;50.840;4.948;2022-11-14T01:57:25;4.50;99.90
11136;DHT22;5622;50.840;4.948;2022-11-14T02:00:04;5.10;99.90
11136;DHT22;5622;50.840;4.948;2022-11-14T02:02:39;5.20;99.90
11136;DHT22;5622;50.840;4.948;2022-11-14T02:05:12;5.10;99.90
11136;DHT22;5622;50.840;4.948;2022-11-14T02:07:44;5.20;99.90
11136;DHT22;5622;50.840;4.948;2022-11-14T02:10:19;5.40;99.90
11136;DHT22;5622;50.840;4.948;2022-11-14T02:12:49;4.90;99.90
11136;DHT22;5622;50.840;4.948;2022-11-14T02:15:20;5.10;99.90
11136;DHT22;5622;50.840;4.948;2022-11-14T02:17:49;5.20;99.90
11136;DHT22;5622;50.840;4.948;2022-11-14T02:20:23;5.40;99.90
11136;DHT22;5622;50.840;4.948;2022-11-14T02:23:00;5.10;99.90
11136;DHT22;5622;50.840;4.948;2022-11-14T02:25:31;5.10;99.90
11136;DHT22;5622;50.840;4.948;2022-11-14T02:28:00;5.10;99.90
11136;DHT22;5622;50.840;4.948;2022-11-14T02:30:30;5.10;99.90
11136;DHT22;5622;50.840;4.948;2022-11-14T02:33:01;5.00;99.90
11136;DHT22;5622;50.840;4.948;2022-11-14T02:35:31;5.00;99.90
11136;DHT22;5622;50.840;4.948;2022-11-14T02:38:00;4.90;99.90
11136;DHT22;5622;50.840;4.948;2022-11-14T02:40:28;5.10;99.90
11136;DHT22;5622;50.840;4.948;2022-11-14T02:42:55;4.60;99.90
11136;DHT22;5622;50.840;4.948;2022-11-14T02:45:24;4.60;99.90
11136;DHT22;5622;50.840;4.948;2022-11-14T02:47:54;4.60;99.90
11136;DHT22;5622;50.840;4.948;2022-11-14T02:50:24;4.40;99.90
11136;DHT22;5622;50.840;4.948;2022-11-14T02:52:53;4.70;99.90
11136;DHT22;5622;50.840;4.948;2022-11-14T02:55:21;4.20;99.90
11136;DHT22;5622;50.840;4.948;2022-11-14T02:57:54;4.20;99.90
11136;DHT22;5622;50.840;4.948;2022-11-14T03:00:23;4.00;99.90
11136;DHT22;5622;50.840;4.948;2022-11-14T03:02:57;3.90;99.90
11136;DHT22;5622;50.840;4.948;2022-11-14T03:05:26;3.90;99.90
11136;DHT22;5622;50.840;4.948;2022-11-14T03:07:58;4.00;99.90
11136;DHT22;5622;50.840;4.948;2022-11-14T03:10:28;4.10;99.90
11136;DHT22;5622;50.840;4.948;2022-11-14T03:12:57;3.80;99.90
11136;DHT22;5622;50.840;4.948;2022-11-14T03:15:26;3.80;99.90
11136;DHT22;5622;50.840;4.948;2022-11-14T03:17:54;4.40;99.90
11136;DHT22;5622;50.840;4.948;2022-11-14T03:20:23;4.00;99.90
11136;DHT22;5622;50.840;4.948;2022-11-14T03:22:56;4.00;99.90
11136;DHT22;5622;50.840;4.948;2022-11-14T03:25:28;4.20;99.90
11136;DHT22;5622;50.840;4.948;2022-11-14T03:27:57;4.40;99.90
11136;DHT22;5622;50.840;4.948;2022-11-14T03:30:28;4.20;99.90
11136;DHT22;5622;50.840;4.948;2022-11-14T03:32:56;4.20;99.90
11136;DHT22;5622;50.840;4.948;2022-11-14T03:35:25;4.20;99.90
11136;DHT22;5622;50.840;4.948;2022-11-14T03:37:55;4.30;99.90
11136;DHT22;5622;50.840;4.948;2022-11-14T03:40:32;4.10;99.90
11136;DHT22;5622;50.840;4.948;2022-11-14T03:43:07;3.90;99.90
11136;DHT22;5622;50.840;4.948;2022-11-14T03:45:37;4.30;99.90
11136;DHT22;5622;50.840;4.948;2022-11-14T03:48:05;4.40;99.90
11136;DHT22;5622;50.840;4.948;2022-11-14T03:50:35;4.30;99.90
11136;DHT22;5622;50.840;4.948;2022-11-14T03:53:05;3.80;99.90
11136;DHT22;5622;50.840;4.948;2022-11-14T03:55:42;4.40;99.90
11136;DHT22;5622;50.840;4.948;2022-11-14T03:58:10;4.40;99.90
11136;DHT22;5622;50.840;4.948;2022-11-14T04:00:38;4.60;99.90
11136;DHT22;5622;50.840;4.948;2022-11-14T04:03:09;4.00;99.90
11136;DHT22;5622;50.840;4.948;2022-11-14T04:05:37;4.20;99.90
11136;DHT22;5622;50.840;4.948;2022-11-14T04:08:07;4.30;99.90
11136;DHT22;5622;50.840;4.948;2022-11-14T04:10:36;4.40;99.90
11136;DHT22;5622;50.840;4.948;2022-11-14T04:13:06;4.40;99.90
11136;DHT22;5622;50.840;4.948;2022-11-14T04:15:37;4.70;99.90
11136;DHT22;5622;50.840;4.948;2022-11-14T04:18:05;4.30;99.90
11136;DHT22;5622;50.840;4.948;2022-11-14T04:20:36;4.40;99.90
11136;DHT22;5622;50.840;4.948;2022-11-14T04:23:15;4.30;99.90
11136;DHT22;5622;50.840;4.948;2022-11-14T04:25:47;3.20;99.90
11136;DHT22;5622;50.840;4.948;2022-11-14T04:28:15;4.30;99.90
11136;DHT22;5622;50.840;4.948;2022-11-14T04:30:43;4.30;99.90
11136;DHT22;5622;50.840;4.948;2022-11-14T04:33:12;4.40;99.90
11136;DHT22;5622;50.840;4.948;2022-11-14T04:35:40;4.30;99.90
11136;DHT22;5622;50.840;4.948;2022-11-14T04:38:10;4.00;99.90
11136;DHT22;5622;50.840;4.948;2022-11-14T04:40:39;4.20;99.90
11136;DHT22;5622;50.840;4.948;2022-11-14T04:43:12;4.20;99.90
11136;DHT22;5622;50.840;4.948;2022-11-14T04:45:44;4.30;99.90
11136;DHT22;5622;50.840;4.948;2022-11-14T04:48:13;3.80;99.90
11136;DHT22;5622;50.840;4.948;2022-11-14T04:50:41;3.70;99.90
11136;DHT22;5622;50.840;4.948;2022-11-14T04:53:10;3.60;99.90
11136;DHT22;5622;50.840;4.948;2022-11-14T04:55:40;3.90;99.90
11136;DHT22;5622;50.840;4.948;2022-11-14T04:58:08;3.60;99.90
11136;DHT22;5622;50.840;4.948;2022-11-14T05:00:42;3.70;99.90
11136;DHT22;5622;50.840;4.948;2022-11-14T05:03:18;3.70;99.90
11136;DHT22;5622;50.840;4.948;2022-11-14T05:05:48;4.00;99.90
11136;DHT22;5622;50.840;4.948;2022-11-14T05:08:20;3.80;99.90
11136;DHT22;5622;50.840;4.948;2022-11-14T05:10:48;3.90;99.90
11136;DHT22;5622;50.840;4.948;2022-11-14T05:13:20;3.80;99.90
11136;DHT22;5622;50.840;4.948;2022-11-14T05:15:51;4.00;99.90
11136;DHT22;5622;50.840;4.948;2022-11-14T05:18:21;3.80;99.90
11136;DHT22;5622;50.840;4.948;2022-11-14T05:20:50;3.80;99.90
11136;DHT22;5622;50.840;4.948;2022-11-14T05:23:23;3.80;99.90
11136;DHT22;5622;50.840;4.948;2022-11-14T05:25:58;4.40;99.90
11136;DHT22;5622;50.840;4.948;2022-11-14T05:28:29;3.80;99.90
11136;DHT22;5622;50.840;4.948;2022-11-14T05:31:05;3.80;99.90
11136;DHT22;5622;50.840;4.948;2022-11-14T05:33:35;3.90;99.90
11136;DHT22;5622;50.840;4.948;2022-11-14T05:36:03;4.20;99.90
11136;DHT22;5622;50.840;4.948;2022-11-14T05:38:33;3.90;99.90
11136;DHT22;5622;50.840;4.948;2022-11-14T05:41:05;4.40;99.90
11136;DHT22;5622;50.840;4.948;2022-11-14T05:43:33;3.20;99.90
11136;DHT22;5622;50.840;4.948;2022-11-14T05:46:03;4.30;99.90
11136;DHT22;5622;50.840;4.948;2022-11-14T05:48:31;3.80;99.90
11136;DHT22;5622;50.840;4.948;2022-11-14T05:51:02;4.00;99.90
11136;DHT22;5622;50.840;4.948;2022-11-14T05:53:34;3.30;99.90
11136;DHT22;5622;50.840;4.948;2022-11-14T05:56:04;3.80;99.90
11136;DHT22;5622;50.840;4.948;2022-11-14T05:58:34;3.60;99.90
11136;DHT22;5622;50.840;4.948;2022-11-14T06:01:07;3.40;99.90
11136;DHT22;5622;50.840;4.948;2022-11-14T06:03:44;3.70;99.90
11136;DHT22;5622;50.840;4.948;2022-11-14T06:06:18;3.80;99.90
11136;DHT22;5622;50.840;4.948;2022-11-14T06:08:49;3.60;99.90
11136;DHT22;5622;50.840;4.948;2022-11-14T06:11:19;3.50;99.90
11136;DHT22;5622;50.840;4.948;2022-11-14T06:13:48;3.10;99.90
11136;DHT22;5622;50.840;4.948;2022-11-14T06:16:18;3.50;99.90
11136;DHT22;5622;50.840;4.948;2022-11-14T06:18:47;4.00;99.90
11136;DHT22;5622;50.840;4.948;2022-11-14T06:21:50;3.40;99.90
11136;DHT22;5622;50.840;4.948;2022-11-14T06:24:34;3.40;99.90
11136;DHT22;5622;50.840;4.948;2022-11-14T06:30:35;3.10;99.90
11136;DHT22;5622;50.840;4.948;2022-11-14T06:33:07;3.30;99.90
11136;DHT22;5622;50.840;4.948;2022-11-14T06:35:46;3.50;99.90
11136;DHT22;5622;50.840;4.948;2022-11-14T06:38:15;4.00;99.90
11136;DHT22;5622;50.840;4.948;2022-11-14T06:40:46;4.30;99.90
11136;DHT22;5622;50.840;4.948;2022-11-14T06:43:17;3.50;99.90
11136;DHT22;5622;50.840;4.948;2022-11-14T06:45:45;3.50;99.90
11136;DHT22;5622;50.840;4.948;2022-11-14T06:48:13;3.50;99.90
11136;DHT22;5622;50.840;4.948;2022-11-14T06:50:43;3.60;99.90
11136;DHT22;5622;50.840;4.948;2022-11-14T06:53:31;3.60;99.90
11136;DHT22;5622;50.840;4.948;2022-11-14T07:50:31;4.50;99.90
11136;DHT22;5622;50.840;4.948;2022-11-14T07:52:58;4.80;99.90
11136;DHT22;5622;50.840;4.948;2022-11-14T07:55:26;4.50;99.90
11136;DHT22;5622;50.840;4.948;2022-11-14T07:57:53;4.50;99.90
11136;DHT22;5622;50.840;4.948;2022-11-14T08:00:21;4.50;99.90
11136;DHT22;5622;50.840;4.948;2022-11-14T08:02:48;4.50;99.90
11136;DHT22;5622;50.840;4.948;2022-11-14T08:05:16;4.50;99.90
11136;DHT22;5622;50.840;4.948;2022-11-14T08:07:47;4.50;99.90
11136;DHT22;5622;50.840;4.948;2022-11-14T08:10:16;4.60;99.90
11136;DHT22;5622;50.840;4.948;2022-11-14T08:12:43;4.60;99.90
11136;DHT22;5622;50.840;4.948;2022-11-14T08:15:12;5.10;99.90
11136;DHT22;5622;50.840;4.948;2022-11-14T08:17:40;4.70;99.90
11136;DHT22;5622;50.840;4.948;2022-11-14T08:20:08;4.60;99.90
11136;DHT22;5622;50.840;4.948;2022-11-14T08:22:35;4.60;99.90
11136;DHT22;5622;50.840;4.948;2022-11-14T08:25:05;4.70;99.90
11136;DHT22;5622;50.840;4.948;2022-11-14T08:27:32;4.70;99.90
11136;DHT22;5622;50.840;4.948;2022-11-14T08:29:59;4.80;99.90
11136;DHT22;5622;50.840;4.948;2022-11-14T08:32:26;4.70;99.90
11136;DHT22;5622;50.840;4.948;2022-11-14T08:34:54;4.80;99.90
11136;DHT22;5622;50.840;4.948;2022-11-14T08:37:21;4.80;99.90
11136;DHT22;5622;50.840;4.948;2022-11-14T08:39:48;5.00;99.90
11136;DHT22;5622;50.840;4.948;2022-11-14T08:42:17;5.00;99.90
11136;DHT22;5622;50.840;4.948;2022-11-14T08:44:44;5.10;99.90
11136;DHT22;5622;50.840;4.948;2022-11-14T08:47:11;5.10;99.90
11136;DHT22;5622;50.840;4.948;2022-11-14T08:49:38;5.20;99.90
11136;DHT22;5622;50.840;4.948;2022-11-14T08:52:05;5.20;99.90
11136;DHT22;5622;50.840;4.948;2022-11-14T08:54:32;5.40;99.90
11136;DHT22;5622;50.840;4.948;2022-11-14T08:56:59;5.40;99.90
11136;DHT22;5622;50.840;4.948;2022-11-14T08:59:28;5.50;99.90
11136;DHT22;5622;50.840;4.948;2022-11-14T09:01:55;5.60;99.90
11136;DHT22;5622;50.840;4.948;2022-11-14T09:04:22;5.70;99.90
11136;DHT22;5622;50.840;4.948;2022-11-14T09:06:49;5.80;99.90
11136;DHT22;5622;50.840;4.948;2022-11-14T09:09:17;5.90;99.90
11136;DHT22;5622;50.840;4.948;2022-11-14T09:11:44;5.90;99.90
11136;DHT22;5622;50.840;4.948;2022-11-14T09:14:11;6.00;99.90
11136;DHT22;5622;50.840;4.948;2022-11-14T09:16:40;6.10;99.90
11136;DHT22;5622;50.840;4.948;2022-11-14T09:19:07;6.70;99.90
11136;DHT22;5622;50.840;4.948;2022-11-14T09:21:34;6.20;99.90
11136;DHT22;5622;50.840;4.948;2022-11-14T09:24:01;6.30;99.90
11136;DHT22;5622;50.840;4.948;2022-11-14T09:26:28;6.30;99.90
11136;DHT22;5622;50.840;4.948;2022-11-14T09:28:55;6.40;99.90
11136;DHT22;5622;50.840;4.948;2022-11-14T09:31:23;6.50;99.90
11136;DHT22;5622;50.840;4.948;2022-11-14T09:33:51;6.60;99.90
11136;DHT22;5622;50.840;4.948;2022-11-14T09:36:18;7.30;99.90
11136;DHT22;5622;50.840;4.948;2022-11-14T09:38:47;6.70;99.90
11136;DHT22;5622;50.840;4.948;2022-11-14T09:41:24;6.70;99.90
11136;DHT22;5622;50.840;4.948;2022-11-14T09:44:13;6.80;99.90
11136;DHT22;5622;50.840;4.948;2022-11-14T09:46:44;6.90;99.90
11136;DHT22;5622;50.840;4.948;2022-11-14T09:49:24;6.80;99.90
11136;DHT22;5622;50.840;4.948;2022-11-14T09:51:57;6.90;99.90
11136;DHT22;5622;50.840;4.948;2022-11-14T09:54:27;6.90;99.90
11136;DHT22;5622;50.840;4.948;2022-11-14T09:56:59;6.90;99.90
11136;DHT22;5622;50.840;4.948;2022-11-14T09:59:26;7.20;99.90
11136;DHT22;5622;50.840;4.948;2022-11-14T10:01:57;7.00;99.90
11136;DHT22;5622;50.840;4.948;2022-11-14T10:04:43;7.00;99.90
11136;DHT22;5622;50.840;4.948;2022-11-14T10:07:23;7.00;99.90
11136;DHT22;5622;50.840;4.948;2022-11-14T10:09:59;7.00;99.90
11136;DHT22;5622;50.840;4.948;2022-11-14T10:12:38;7.00;99.90
11136;DHT22;5622;50.840;4.948;2022-11-14T10:15:15;7.10;99.90
11136;DHT22;5622;50.840;4.948;2022-11-14T10:18:05;7.10;99.90
11136;DHT22;5622;50.840;4.948;2022-11-14T10:20:40;7.20;99.90
11136;DHT22;5622;50.840;4.948;2022-11-14T10:23:18;7.10;99.90
11136;DHT22;5622;50.840;4.948;2022-11-14T10:25:54;7.20;99.90
11136;DHT22;5622;50.840;4.948;2022-11-14T10:28:40;7.10;99.90
11136;DHT22;5622;50.840;4.948;2022-11-14T10:31:18;7.10;99.90
11136;DHT22;5622;50.840;4.948;2022-11-14T10:33:51;7.10;99.90
11136;DHT22;5622;50.840;4.948;2022-11-14T10:36:33;7.10;99.90
11136;DHT22;5622;50.840;4.948;2022-11-14T10:39:10;7.20;99.90
11136;DHT22;5622;50.840;4.948;2022-11-14T10:41:39;7.20;99.90
11136;DHT22;5622;50.840;4.948;2022-11-14T10:44:10;7.20;99.90
11136;DHT22;5622;50.840;4.948;2022-11-14T10:46:42;7.10;99.90
11136;DHT22;5622;50.840;4.948;2022-11-14T10:49:15;7.10;99.90
11136;DHT22;5622;50.840;4.948;2022-11-14T10:51:46;7.60;99.90
11136;DHT22;5622;50.840;4.948;2022-11-14T10:54:20;7.10;99.90
11136;DHT22;5622;50.840;4.948;2022-11-14T10:56:49;7.10;99.90
11136;DHT22;5622;50.840;4.948;2022-11-14T10:59:17;7.10;99.90
11136;DHT22;5622;50.840;4.948;2022-11-14T11:01:52;7.10;99.90
11136;DHT22;5622;50.840;4.948;2022-11-14T11:04:24;7.20;99.90
11136;DHT22;5622;50.840;4.948;2022-11-14T11:06:54;7.20;99.90
11136;DHT22;5622;50.840;4.948;2022-11-14T11:09:24;7.30;99.90
11136;DHT22;5622;50.840;4.948;2022-11-14T11:12:14;7.70;99.90
11136;DHT22;5622;50.840;4.948;2022-11-14T11:14:42;7.30;99.90
11136;DHT22;5622;50.840;4.948;2022-11-14T11:17:18;7.30;99.90
11136;DHT22;5622;50.840;4.948;2022-11-14T11:19:47;7.30;99.90
11136;DHT22;5622;50.840;4.948;2022-11-14T11:22:28;7.40;99.90
11136;DHT22;5622;50.840;4.948;2022-11-14T11:24:56;7.30;99.90
11136;DHT22;5622;50.840;4.948;2022-11-14T11:27:24;7.40;99.90
11136;DHT22;5622;50.840;4.948;2022-11-14T11:30:07;7.40;99.90
11136;DHT22;5622;50.840;4.948;2022-11-14T11:32:34;7.30;99.90
11136;DHT22;5622;50.840;4.948;2022-11-14T11:35:09;7.30;99.90
11136;DHT22;5622;50.840;4.948;2022-11-14T11:37:43;7.30;99.90
11136;DHT22;5622;50.840;4.948;2022-11-14T11:40:17;7.30;99.90
11136;DHT22;5622;50.840;4.948;2022-11-14T11:42:50;7.30;99.90
11136;DHT22;5622;50.840;4.948;2022-11-14T11:45:22;7.30;99.90
11136;DHT22;5622;50.840;4.948;2022-11-14T11:47:54;7.40;99.90
11136;DHT22;5622;50.840;4.948;2022-11-14T11:50:23;7.30;99.90
11136;DHT22;5622;50.840;4.948;2022-11-14T11:53:00;7.30;99.90
11136;DHT22;5622;50.840;4.948;2022-11-14T11:55:33;7.30;99.90
11136;DHT22;5622;50.840;4.948;2022-11-14T11:58:10;7.30;99.90
11136;DHT22;5622;50.840;4.948;2022-11-14T12:00:38;7.40;99.90
11136;DHT22;5622;50.840;4.948;2022-11-14T12:03:10;7.40;99.90
11136;DHT22;5622;50.840;4.948;2022-11-14T12:05:47;7.40;99.90
11136;DHT22;5622;50.840;4.948;2022-11-14T12:08:23;7.40;99.90
11136;DHT22;5622;50.840;4.948;2022-11-14T12:10:53;7.30;99.90
11136;DHT22;5622;50.840;4.948;2022-11-14T12:13:42;7.40;99.90
11136;DHT22;5622;50.840;4.948;2022-11-14T12:16:34;7.40;99.90
11136;DHT22;5622;50.840;4.948;2022-11-14T12:19:36;7.40;99.90
11136;DHT22;5622;50.840;4.948;2022-11-14T12:22:31;7.90;99.90
11136;DHT22;5622;50.840;4.948;2022-11-14T12:25:27;7.50;99.90
11136;DHT22;5622;50.840;4.948;2022-11-14T12:28:08;7.50;99.90
11136;DHT22;5622;50.840;4.948;2022-11-14T12:30:38;7.50;99.90
11136;DHT22;5622;50.840;4.948;2022-11-14T12:33:09;7.50;99.90
11136;DHT22;5622;50.840;4.948;2022-11-14T12:35:47;7.50;99.90
11136;DHT22;5622;50.840;4.948;2022-11-14T12:38:16;7.50;99.90
11136;DHT22;5622;50.840;4.948;2022-11-14T12:40:51;7.50;99.90
11136;DHT22;5622;50.840;4.948;2022-11-14T12:43:31;7.60;99.90
11136;DHT22;5622;50.840;4.948;2022-11-14T12:46:01;7.60;99.90
11136;DHT22;5622;50.840;4.948;2022-11-14T12:48:31;7.60;99.90
11136;DHT22;5622;50.840;4.948;2022-11-14T12:50:59;7.60;99.90
11136;DHT22;5622;50.840;4.948;2022-11-14T12:53:41;7.70;99.90
11136;DHT22;5622;50.840;4.948;2022-11-14T12:59:36;7.70;99.90
11136;DHT22;5622;50.840;4.948;2022-11-14T13:02:49;7.70;99.90
11136;DHT22;5622;50.840;4.948;2022-11-14T13:08:18;7.80;99.90
11136;DHT22;5622;50.840;4.948;2022-11-14T13:10:48;7.80;99.90
11136;DHT22;5622;50.840;4.948;2022-11-14T13:13:15;7.80;99.90
11136;DHT22;5622;50.840;4.948;2022-11-14T13:16:03;7.80;99.90
11136;DHT22;5622;50.840;4.948;2022-11-14T13:19:02;7.80;99.90
11136;DHT22;5622;50.840;4.948;2022-11-14T13:22:35;7.90;99.90
11136;DHT22;5622;50.840;4.948;2022-11-14T13:25:18;7.90;99.90
11136;DHT22;5622;50.840;4.948;2022-11-14T13:27:46;7.90;99.90
11136;DHT22;5622;50.840;4.948;2022-11-14T13:30:13;8.00;99.90
11136;DHT22;5622;50.840;4.948;2022-11-14T13:33:03;7.90;99.90
11136;DHT22;5622;50.840;4.948;2022-11-14T13:35:39;8.00;99.90
11136;DHT22;5622;50.840;4.948;2022-11-14T13:41:05;8.10;99.90
11136;DHT22;5622;50.840;4.948;2022-11-14T13:43:47;8.10;99.90
11136;DHT22;5622;50.840;4.948;2022-11-14T13:46:29;8.10;99.90
11136;DHT22;5622;50.840;4.948;2022-11-14T13:49:14;8.40;99.90
11136;DHT22;5622;50.840;4.948;2022-11-14T13:51:45;8.10;99.90
11136;DHT22;5622;50.840;4.948;2022-11-14T13:54:14;8.00;99.90
11136;DHT22;5622;50.840;4.948;2022-11-14T13:56:51;8.10;99.90
11136;DHT22;5622;50.840;4.948;2022-11-14T13:59:39;8.10;99.90
11136;DHT22;5622;50.840;4.948;2022-11-14T14:02:42;8.10;99.90
11136;DHT22;5622;50.840;4.948;2022-11-14T14:05:24;8.10;99.90
11136;DHT22;5622;50.840;4.948;2022-11-14T14:08:17;8.10;99.90
11136;DHT22;5622;50.840;4.948;2022-11-14T14:10:54;8.10;99.90
11136;DHT22;5622;50.840;4.948;2022-11-14T14:13:36;8.10;99.90
11136;DHT22;5622;50.840;4.948;2022-11-14T14:16:14;8.10;99.90
11136;DHT22;5622;50.840;4.948;2022-11-14T14:18:50;8.10;99.90
11136;DHT22;5622;50.840;4.948;2022-11-14T14:21:34;8.10;99.90
11136;DHT22;5622;50.840;4.948;2022-11-14T14:24:17;8.00;99.90
11136;DHT22;5622;50.840;4.948;2022-11-14T14:26:59;8.00;99.90
11136;DHT22;5622;50.840;4.948;2022-11-14T14:29:35;8.00;99.90
11136;DHT22;5622;50.840;4.948;2022-11-14T14:32:09;8.00;99.90
11136;DHT22;5622;50.840;4.948;2022-11-14T14:34:37;8.00;99.90
11136;DHT22;5622;50.840;4.948;2022-11-14T14:37:19;7.80;99.90
11136;DHT22;5622;50.840;4.948;2022-11-14T14:39:55;8.00;99.90
11136;DHT22;5622;50.840;4.948;2022-11-14T14:42:25;7.80;99.90
11136;DHT22;5622;50.840;4.948;2022-11-14T14:44:56;7.90;99.90
11136;DHT22;5622;50.840;4.948;2022-11-14T14:47:33;7.90;99.90
11136;DHT22;5622;50.840;4.948;2022-11-14T14:50:07;7.90;99.90
11136;DHT22;5622;50.840;4.948;2022-11-14T14:52:53;7.80;99.90
11136;DHT22;5622;50.840;4.948;2022-11-14T14:55:36;7.90;99.90
11136;DHT22;5622;50.840;4.948;2022-11-14T14:58:15;7.80;99.90
11136;DHT22;5622;50.840;4.948;2022-11-14T15:00:55;7.90;99.90
11136;DHT22;5622;50.840;4.948;2022-11-14T15:03:42;7.90;99.90
11136;DHT22;5622;50.840;4.948;2022-11-14T15:06:36;7.90;99.90
11136;DHT22;5622;50.840;4.948;2022-11-14T15:09:25;7.90;99.90
11136;DHT22;5622;50.840;4.948;2022-11-14T15:12:00;8.00;99.90
11136;DHT22;5622;50.840;4.948;2022-11-14T15:14:32;8.00;99.90
11136;DHT22;5622;50.840;4.948;2022-11-14T15:17:13;8.00;99.90
11136;DHT22;5622;50.840;4.948;2022-11-14T15:22:32;8.00;99.90
11136;DHT22;5622;50.840;4.948;2022-11-14T15:25:23;8.00;99.90
11136;DHT22;5622;50.840;4.948;2022-11-14T15:28:20;8.10;99.90
11136;DHT22;5622;50.840;4.948;2022-11-14T15:31:02;7.60;99.90
11136;DHT22;5622;50.840;4.948;2022-11-14T15:33:40;8.10;99.90
11136;DHT22;5622;50.840;4.948;2022-11-14T15:36:16;8.10;99.90
11136;DHT22;5622;50.840;4.948;2022-11-14T15:39:03;8.10;99.90
11136;DHT22;5622;50.840;4.948;2022-11-14T15:41:39;8.20;99.90
11136;DHT22;5622;50.840;4.948;2022-11-14T15:44:30;8.10;99.90
11136;DHT22;5622;50.840;4.948;2022-11-14T15:47:12;8.10;99.90
11136;DHT22;5622;50.840;4.948;2022-11-14T15:50:00;8.10;99.90
11136;DHT22;5622;50.840;4.948;2022-11-14T15:52:52;7.60;99.90
11136;DHT22;5622;50.840;4.948;2022-11-14T15:55:29;8.10;99.90
11136;DHT22;5622;50.840;4.948;2022-11-14T15:58:25;8.10;99.90
11136;DHT22;5622;50.840;4.948;2022-11-14T16:00:57;8.10;99.90
11136;DHT22;5622;50.840;4.948;2022-11-14T16:03:38;8.10;99.90
11136;DHT22;5622;50.840;4.948;2022-11-14T16:06:15;8.20;99.90
11136;DHT22;5622;50.840;4.948;2022-11-14T16:08:51;8.20;99.90
11136;DHT22;5622;50.840;4.948;2022-11-14T16:11:31;8.10;99.90
11136;DHT22;5622;50.840;4.948;2022-11-14T16:14:23;8.10;99.90
11136;DHT22;5622;50.840;4.948;2022-11-14T16:17:12;8.10;99.90
11136;DHT22;5622;50.840;4.948;2022-11-14T16:19:42;8.10;99.90
11136;DHT22;5622;50.840;4.948;2022-11-14T16:22:22;8.10;99.90
11136;DHT22;5622;50.840;4.948;2022-11-14T16:24:51;8.80;99.90
11136;DHT22;5622;50.840;4.948;2022-11-14T16:27:21;8.10;99.90
11136;DHT22;5622;50.840;4.948;2022-11-14T16:29:52;8.10;99.90
11136;DHT22;5622;50.840;4.948;2022-11-14T16:32:22;7.30;99.90
11136;DHT22;5622;50.840;4.948;2022-11-14T16:34:53;7.90;99.90
11136;DHT22;5622;50.840;4.948;2022-11-14T16:37:26;8.10;99.90
11136;DHT22;5622;50.840;4.948;2022-11-14T16:39:56;8.10;99.90
11136;DHT22;5622;50.840;4.948;2022-11-14T16:42:27;8.10;99.90
11136;DHT22;5622;50.840;4.948;2022-11-14T16:45:10;8.10;99.90
11136;DHT22;5622;50.840;4.948;2022-11-14T16:47:44;8.10;99.90
11136;DHT22;5622;50.840;4.948;2022-11-14T16:50:12;8.10;99.90
11136;DHT22;5622;50.840;4.948;2022-11-14T16:52:51;8.10;99.90
11136;DHT22;5622;50.840;4.948;2022-11-14T16:55:23;7.70;99.90
11136;DHT22;5622;50.840;4.948;2022-11-14T16:57:53;8.20;99.90
11136;DHT22;5622;50.840;4.948;2022-11-14T17:00:23;8.10;99.90
11136;DHT22;5622;50.840;4.948;2022-11-14T17:02:56;8.20;99.90
11136;DHT22;5622;50.840;4.948;2022-11-14T17:05:27;8.20;99.90
11136;DHT22;5622;50.840;4.948;2022-11-14T17:07:58;8.10;99.90
11136;DHT22;5622;50.840;4.948;2022-11-14T17:10:28;8.40;99.90
11136;DHT22;5622;50.840;4.948;2022-11-14T17:13:00;8.20;99.90
11136;DHT22;5622;50.840;4.948;2022-11-14T17:15:31;8.00;99.90
11136;DHT22;5622;50.840;4.948;2022-11-14T17:18:05;8.30;99.90
11136;DHT22;5622;50.840;4.948;2022-11-14T17:20:36;8.10;99.90
11136;DHT22;5622;50.840;4.948;2022-11-14T17:23:05;8.20;99.90
11136;DHT22;5622;50.840;4.948;2022-11-14T17:25:35;8.10;99.90
11136;DHT22;5622;50.840;4.948;2022-11-14T17:28:05;8.10;99.90
11136;DHT22;5622;50.840;4.948;2022-11-14T17:30:42;8.10;99.90
11136;DHT22;5622;50.840;4.948;2022-11-14T17:33:13;8.10;99.90
11136;DHT22;5622;50.840;4.948;2022-11-14T17:35:44;8.10;99.90
11136;DHT22;5622;50.840;4.948;2022-11-14T17:38:13;8.10;99.90
11136;DHT22;5622;50.840;4.948;2022-11-14T17:40:44;8.10;99.90
11136;DHT22;5622;50.840;4.948;2022-11-14T17:43:14;8.10;99.90
11136;DHT22;5622;50.840;4.948;2022-11-14T17:45:52;8.20;99.90
11136;DHT22;5622;50.840;4.948;2022-11-14T17:48:20;8.10;99.90
11136;DHT22;5622;50.840;4.948;2022-11-14T17:50:51;8.20;99.90
11136;DHT22;5622;50.840;4.948;2022-11-14T17:53:19;7.90;99.90